sensor_id;sensor_type;location;lat;lon;timestamp;temperature;humidity
19536;HTU21D;9913;51.168;4.124;2024-02-21T00:00:20;9.01;96.66
19536;HTU21D;9913;51.168;4.124;2024-02-21T00:02:48;9.06;96.78
19536;HTU21D;9913;51.168;4.124;2024-02-21T00:05:17;9.06;96.79
19536;HTU21D;9913;51.168;4.124;2024-02-21T00:07:45;9.06;96.57
19536;HTU21D;9913;51.168;4.124;2024-02-21T00:10:13;9.04;96.57
19536;HTU21D;9913;51.168;4.124;2024-02-21T00:12:42;9.06;96.75
19536;HTU21D;9913;51.168;4.124;2024-02-21T00:15:11;9.08;96.73
19536;HTU21D;9913;51.168;4.124;2024-02-21T00:17:40;9.10;96.64
19536;HTU21D;9913;51.168;4.124;2024-02-21T00:20:08;9.08;96.58
19536;HTU21D;9913;51.168;4.124;2024-02-21T00:22:37;9.02;96.64
19536;HTU21D;9913;51.168;4.124;2024-02-21T00:25:06;8.91;96.62
19536;HTU21D;9913;51.168;4.124;2024-02-21T00:27:35;8.94;96.68
19536;HTU21D;9913;51.168;4.124;2024-02-21T00:30:04;8.88;96.64
19536;HTU21D;9913;51.168;4.124;2024-02-21T00:32:34;8.85;96.62
19536;HTU21D;9913;51.168;4.124;2024-02-21T00:35:03;8.85;96.62
19536;HTU21D;9913;51.168;4.124;2024-02-21T00:37:31;8.86;96.62
19536;HTU21D;9913;51.168;4.124;2024-02-21T00:40:00;8.91;96.73
19536;HTU21D;9913;51.168;4.124;2024-02-21T00:42:28;8.94;96.64
19536;HTU21D;9913;51.168;4.124;2024-02-21T00:44:56;8.93;96.53
19536;HTU21D;9913;51.168;4.124;2024-02-21T00:47:24;8.95;96.67
19536;HTU21D;9913;51.168;4.124;2024-02-21T00:49:54;8.97;96.52
19536;HTU21D;9913;51.168;4.124;2024-02-21T00:52:23;8.88;96.57
19536;HTU21D;9913;51.168;4.124;2024-02-21T00:54:51;8.81;96.52
19536;HTU21D;9913;51.168;4.124;2024-02-21T00:57:21;8.75;96.58
19536;HTU21D;9913;51.168;4.124;2024-02-21T00:59:50;8.76;96.55
19536;HTU21D;9913;51.168;4.124;2024-02-21T01:02:19;8.80;96.68
19536;HTU21D;9913;51.168;4.124;2024-02-21T01:04:47;8.82;96.47
19536;HTU21D;9913;51.168;4.124;2024-02-21T01:07:17;8.82;96.57
19536;HTU21D;9913;51.168;4.124;2024-02-21T01:09:45;8.82;96.52
19536;HTU21D;9913;51.168;4.124;2024-02-21T01:12:13;8.74;96.46
19536;HTU21D;9913;51.168;4.124;2024-02-21T01:14:42;8.71;96.59
19536;HTU21D;9913;51.168;4.124;2024-02-21T01:17:10;8.71;96.58
19536;HTU21D;9913;51.168;4.124;2024-02-21T01:19:38;8.68;96.61
19536;HTU21D;9913;51.168;4.124;2024-02-21T01:22:07;8.72;96.59
19536;HTU21D;9913;51.168;4.124;2024-02-21T01:24:40;8.73;96.56
19536;HTU21D;9913;51.168;4.124;2024-02-21T01:27:08;8.70;96.51
19536;HTU21D;9913;51.168;4.124;2024-02-21T01:29:36;8.73;96.52
19536;HTU21D;9913;51.168;4.124;2024-02-21T01:32:05;8.72;96.56
19536;HTU21D;9913;51.168;4.124;2024-02-21T01:34:34;8.68;96.46
19536;HTU21D;9913;51.168;4.124;2024-02-21T01:37:02;8.70;96.52
19536;HTU21D;9913;51.168;4.124;2024-02-21T01:39:31;8.73;96.59
19536;HTU21D;9913;51.168;4.124;2024-02-21T01:42:01;8.68;96.43
19536;HTU21D;9913;51.168;4.124;2024-02-21T01:44:29;8.66;96.40
19536;HTU21D;9913;51.168;4.124;2024-02-21T01:46:58;8.68;96.49
19536;HTU21D;9913;51.168;4.124;2024-02-21T01:49:27;8.67;96.45
19536;HTU21D;9913;51.168;4.124;2024-02-21T01:51:55;8.71;96.49
19536;HTU21D;9913;51.168;4.124;2024-02-21T01:54:25;8.70;96.46
19536;HTU21D;9913;51.168;4.124;2024-02-21T01:56:56;8.72;96.49
19536;HTU21D;9913;51.168;4.124;2024-02-21T01:59:26;8.70;96.46
19536;HTU21D;9913;51.168;4.124;2024-02-21T02:01:55;8.68;96.52
19536;HTU21D;9913;51.168;4.124;2024-02-21T02:04:24;8.76;96.52
19536;HTU21D;9913;51.168;4.124;2024-02-21T02:06:54;8.73;96.39
19536;HTU21D;9913;51.168;4.124;2024-02-21T02:09:23;8.73;96.49
19536;HTU21D;9913;51.168;4.124;2024-02-21T02:11:51;8.72;96.33
19536;HTU21D;9913;51.168;4.124;2024-02-21T02:14:19;8.75;96.42
19536;HTU21D;9913;51.168;4.124;2024-02-21T02:16:49;8.68;96.36
19536;HTU21D;9913;51.168;4.124;2024-02-21T02:19:18;8.66;96.49
19536;HTU21D;9913;51.168;4.124;2024-02-21T02:21:49;8.49;96.44
19536;HTU21D;9913;51.168;4.124;2024-02-21T02:24:27;8.38;96.69
19536;HTU21D;9913;51.168;4.124;2024-02-21T02:26:55;8.42;96.71
19536;HTU21D;9913;51.168;4.124;2024-02-21T02:29:25;8.31;96.65
19536;HTU21D;9913;51.168;4.124;2024-02-21T02:31:54;8.35;96.70
19536;HTU21D;9913;51.168;4.124;2024-02-21T02:34:22;8.28;96.62
19536;HTU21D;9913;51.168;4.124;2024-02-21T02:36:51;8.32;96.67
19536;HTU21D;9913;51.168;4.124;2024-02-21T02:39:19;8.27;96.68
19536;HTU21D;9913;51.168;4.124;2024-02-21T02:41:49;8.26;96.67
19536;HTU21D;9913;51.168;4.124;2024-02-21T02:44:17;8.27;96.75
19536;HTU21D;9913;51.168;4.124;2024-02-21T02:46:45;8.29;96.67
19536;HTU21D;9913;51.168;4.124;2024-02-21T02:49:14;8.22;96.73
19536;HTU21D;9913;51.168;4.124;2024-02-21T02:51:42;8.26;96.71
19536;HTU21D;9913;51.168;4.124;2024-02-21T02:54:11;8.29;96.63
19536;HTU21D;9913;51.168;4.124;2024-02-21T02:56:39;8.22;96.62
19536;HTU21D;9913;51.168;4.124;2024-02-21T02:59:09;8.28;96.58
19536;HTU21D;9913;51.168;4.124;2024-02-21T03:01:37;8.22;96.59
19536;HTU21D;9913;51.168;4.124;2024-02-21T03:04:06;8.29;96.55
19536;HTU21D;9913;51.168;4.124;2024-02-21T03:06:35;8.22;96.40
19536;HTU21D;9913;51.168;4.124;2024-02-21T03:09:03;8.24;96.55
19536;HTU21D;9913;51.168;4.124;2024-02-21T03:11:36;8.31;96.55
19536;HTU21D;9913;51.168;4.124;2024-02-21T03:14:09;8.27;96.46
19536;HTU21D;9913;51.168;4.124;2024-02-21T03:16:38;8.29;96.53
19536;HTU21D;9913;51.168;4.124;2024-02-21T03:19:08;8.32;96.52
19536;HTU21D;9913;51.168;4.124;2024-02-21T03:21:36;8.26;96.47
19536;HTU21D;9913;51.168;4.124;2024-02-21T03:24:05;8.27;96.45
19536;HTU21D;9913;51.168;4.124;2024-02-21T03:26:33;8.30;96.49
19536;HTU21D;9913;51.168;4.124;2024-02-21T03:29:03;8.28;96.55
19536;HTU21D;9913;51.168;4.124;2024-02-21T03:31:33;8.18;96.44
19536;HTU21D;9913;51.168;4.124;2024-02-21T03:34:01;8.18;96.65
19536;HTU21D;9913;51.168;4.124;2024-02-21T03:36:30;8.22;96.58
19536;HTU21D;9913;51.168;4.124;2024-02-21T03:38:58;8.20;96.57
19536;HTU21D;9913;51.168;4.124;2024-02-21T03:41:27;8.22;96.49
19536;HTU21D;9913;51.168;4.124;2024-02-21T03:43:55;8.32;96.49
19536;HTU21D;9913;51.168;4.124;2024-02-21T03:46:24;8.28;96.56
19536;HTU21D;9913;51.168;4.124;2024-02-21T03:48:54;8.32;96.61
19536;HTU21D;9913;51.168;4.124;2024-02-21T03:51:22;8.29;96.39
19536;HTU21D;9913;51.168;4.124;2024-02-21T03:53:51;8.37;96.53
19536;HTU21D;9913;51.168;4.124;2024-02-21T03:56:19;8.32;96.43
19536;HTU21D;9913;51.168;4.124;2024-02-21T03:58:47;8.38;96.38
19536;HTU21D;9913;51.168;4.124;2024-02-21T04:01:16;8.37;96.46
19536;HTU21D;9913;51.168;4.124;2024-02-21T04:03:44;8.42;96.36
19536;HTU21D;9913;51.168;4.124;2024-02-21T04:06:14;8.43;96.40
19536;HTU21D;9913;51.168;4.124;2024-02-21T04:08:43;8.34;96.26
19536;HTU21D;9913;51.168;4.124;2024-02-21T04:11:11;8.34;96.38
19536;HTU21D;9913;51.168;4.124;2024-02-21T04:13:39;8.29;96.46
19536;HTU21D;9913;51.168;4.124;2024-02-21T04:16:08;8.35;96.42
19536;HTU21D;9913;51.168;4.124;2024-02-21T04:18:36;8.32;96.55
19536;HTU21D;9913;51.168;4.124;2024-02-21T04:21:04;8.31;96.49
19536;HTU21D;9913;51.168;4.124;2024-02-21T04:23:34;8.31;96.53
19536;HTU21D;9913;51.168;4.124;2024-02-21T04:26:02;8.23;96.59
19536;HTU21D;9913;51.168;4.124;2024-02-21T04:28:31;8.27;96.57
19536;HTU21D;9913;51.168;4.124;2024-02-21T04:30:59;8.24;96.52
19536;HTU21D;9913;51.168;4.124;2024-02-21T04:33:28;8.27;96.67
19536;HTU21D;9913;51.168;4.124;2024-02-21T04:35:56;8.27;96.51
19536;HTU21D;9913;51.168;4.124;2024-02-21T04:38:26;8.23;96.52
19536;HTU21D;9913;51.168;4.124;2024-02-21T04:40:56;8.23;96.58
19536;HTU21D;9913;51.168;4.124;2024-02-21T04:43:26;8.15;96.55
19536;HTU21D;9913;51.168;4.124;2024-02-21T04:45:54;8.11;96.52
19536;HTU21D;9913;51.168;4.124;2024-02-21T04:48:22;8.11;96.77
19536;HTU21D;9913;51.168;4.124;2024-02-21T04:50:51;8.13;96.72
19536;HTU21D;9913;51.168;4.124;2024-02-21T04:53:19;8.07;96.71
19536;HTU21D;9913;51.168;4.124;2024-02-21T04:55:47;8.07;96.72
19536;HTU21D;9913;51.168;4.124;2024-02-21T04:58:17;8.06;96.74
19536;HTU21D;9913;51.168;4.124;2024-02-21T05:00:45;8.08;96.75
19536;HTU21D;9913;51.168;4.124;2024-02-21T05:03:14;8.07;96.69
19536;HTU21D;9913;51.168;4.124;2024-02-21T05:05:42;8.07;96.67
19536;HTU21D;9913;51.168;4.124;2024-02-21T05:08:10;8.04;96.72
19536;HTU21D;9913;51.168;4.124;2024-02-21T05:10:39;8.02;96.66
19536;HTU21D;9913;51.168;4.124;2024-02-21T05:13:08;8.06;96.75
19536;HTU21D;9913;51.168;4.124;2024-02-21T05:15:38;8.08;96.73
19536;HTU21D;9913;51.168;4.124;2024-02-21T05:18:07;8.11;96.73
19536;HTU21D;9913;51.168;4.124;2024-02-21T05:20:35;8.09;96.62
19536;HTU21D;9913;51.168;4.124;2024-02-21T05:23:04;8.11;96.72
19536;HTU21D;9913;51.168;4.124;2024-02-21T05:25:32;8.14;96.68
19536;HTU21D;9913;51.168;4.124;2024-02-21T05:28:00;8.14;96.62
19536;HTU21D;9913;51.168;4.124;2024-02-21T05:30:30;8.14;96.61
19536;HTU21D;9913;51.168;4.124;2024-02-21T05:33:04;8.16;96.58
19536;HTU21D;9913;51.168;4.124;2024-02-21T05:35:33;8.13;96.57
19536;HTU21D;9913;51.168;4.124;2024-02-21T05:38:02;8.13;96.67
19536;HTU21D;9913;51.168;4.124;2024-02-21T05:40:32;8.03;96.71
19536;HTU21D;9913;51.168;4.124;2024-02-21T05:43:01;8.04;96.65
19536;HTU21D;9913;51.168;4.124;2024-02-21T05:45:29;8.07;96.69
19536;HTU21D;9913;51.168;4.124;2024-02-21T05:47:57;8.05;96.68
19536;HTU21D;9913;51.168;4.124;2024-02-21T05:50:27;8.08;96.65
19536;HTU21D;9913;51.168;4.124;2024-02-21T05:52:55;8.05;96.65
19536;HTU21D;9913;51.168;4.124;2024-02-21T05:55:24;8.06;96.65
19536;HTU21D;9913;51.168;4.124;2024-02-21T05:57:53;8.06;96.64
19536;HTU21D;9913;51.168;4.124;2024-02-21T06:00:22;8.06;96.63
19536;HTU21D;9913;51.168;4.124;2024-02-21T06:02:50;8.04;96.62
19536;HTU21D;9913;51.168;4.124;2024-02-21T06:05:18;8.04;96.63
19536;HTU21D;9913;51.168;4.124;2024-02-21T06:07:48;8.02;96.65
19536;HTU21D;9913;51.168;4.124;2024-02-21T06:10:17;8.03;96.75
19536;HTU21D;9913;51.168;4.124;2024-02-21T06:12:45;8.03;96.62
19536;HTU21D;9913;51.168;4.124;2024-02-21T06:15:14;8.02;96.78
19536;HTU21D;9913;51.168;4.124;2024-02-21T06:17:42;8.06;96.75
19536;HTU21D;9913;51.168;4.124;2024-02-21T06:20:11;8.08;96.63
19536;HTU21D;9913;51.168;4.124;2024-02-21T06:22:39;8.02;96.58
19536;HTU21D;9913;51.168;4.124;2024-02-21T06:25:09;8.09;96.63
19536;HTU21D;9913;51.168;4.124;2024-02-21T06:27:38;8.12;96.63
19536;HTU21D;9913;51.168;4.124;2024-02-21T06:30:07;8.05;96.55
19536;HTU21D;9913;51.168;4.124;2024-02-21T06:32:36;8.08;96.62
19536;HTU21D;9913;51.168;4.124;2024-02-21T06:35:05;8.08;96.55
19536;HTU21D;9913;51.168;4.124;2024-02-21T06:37:34;8.08;96.55
19536;HTU21D;9913;51.168;4.124;2024-02-21T06:40:03;8.07;96.58
19536;HTU21D;9913;51.168;4.124;2024-02-21T06:42:32;8.11;96.61
19536;HTU21D;9913;51.168;4.124;2024-02-21T06:45:01;8.12;96.58
19536;HTU21D;9913;51.168;4.124;2024-02-21T06:47:29;8.12;96.60
19536;HTU21D;9913;51.168;4.124;2024-02-21T06:49:58;8.13;96.62
19536;HTU21D;9913;51.168;4.124;2024-02-21T06:52:26;8.13;96.64
19536;HTU21D;9913;51.168;4.124;2024-02-21T06:54:55;8.19;96.54
19536;HTU21D;9913;51.168;4.124;2024-02-21T06:57:23;8.20;96.53
19536;HTU21D;9913;51.168;4.124;2024-02-21T06:59:53;8.21;96.46
19536;HTU21D;9913;51.168;4.124;2024-02-21T07:02:21;8.27;96.44
19536;HTU21D;9913;51.168;4.124;2024-02-21T07:04:50;8.26;96.42
19536;HTU21D;9913;51.168;4.124;2024-02-21T07:07:18;8.28;96.42
19536;HTU21D;9913;51.168;4.124;2024-02-21T07:09:46;8.32;96.33
19536;HTU21D;9913;51.168;4.124;2024-02-21T07:12:15;8.34;96.37
19536;HTU21D;9913;51.168;4.124;2024-02-21T07:14:44;8.36;96.39
19536;HTU21D;9913;51.168;4.124;2024-02-21T07:17:32;8.35;96.27
19536;HTU21D;9913;51.168;4.124;2024-02-21T07:20:00;8.28;96.25
19536;HTU21D;9913;51.168;4.124;2024-02-21T07:22:29;8.33;96.42
19536;HTU21D;9913;51.168;4.124;2024-02-21T07:24:57;8.32;96.34
19536;HTU21D;9913;51.168;4.124;2024-02-21T07:27:28;8.37;96.22
19536;HTU21D;9913;51.168;4.124;2024-02-21T07:29:59;8.30;96.24
19536;HTU21D;9913;51.168;4.124;2024-02-21T07:32:27;8.33;96.34
19536;HTU21D;9913;51.168;4.124;2024-02-21T07:34:57;8.37;96.24
19536;HTU21D;9913;51.168;4.124;2024-02-21T07:37:25;8.37;96.23
19536;HTU21D;9913;51.168;4.124;2024-02-21T07:39:57;8.42;96.18
19536;HTU21D;9913;51.168;4.124;2024-02-21T07:42:25;8.44;96.18
19536;HTU21D;9913;51.168;4.124;2024-02-21T07:44:54;8.47;96.21
19536;HTU21D;9913;51.168;4.124;2024-02-21T07:47:23;8.51;96.28
19536;HTU21D;9913;51.168;4.124;2024-02-21T07:49:51;8.53;96.23
19536;HTU21D;9913;51.168;4.124;2024-02-21T07:52:21;8.56;96.19
19536;HTU21D;9913;51.168;4.124;2024-02-21T07:54:49;8.49;96.06
19536;HTU21D;9913;51.168;4.124;2024-02-21T07:57:17;8.50;96.19
19536;HTU21D;9913;51.168;4.124;2024-02-21T07:59:46;8.60;96.16
19536;HTU21D;9913;51.168;4.124;2024-02-21T08:02:15;8.57;96.13
19536;HTU21D;9913;51.168;4.124;2024-02-21T08:04:43;8.64;96.14
19536;HTU21D;9913;51.168;4.124;2024-02-21T08:07:11;8.71;95.98
19536;HTU21D;9913;51.168;4.124;2024-02-21T08:09:41;8.62;95.95
19536;HTU21D;9913;51.168;4.124;2024-02-21T08:12:09;8.64;96.16
19536;HTU21D;9913;51.168;4.124;2024-02-21T08:14:38;8.74;96.25
19536;HTU21D;9913;51.168;4.124;2024-02-21T08:17:06;8.76;96.12
19536;HTU21D;9913;51.168;4.124;2024-02-21T08:19:34;8.82;95.95
19536;HTU21D;9913;51.168;4.124;2024-02-21T08:22:03;8.85;96.02
19536;HTU21D;9913;51.168;4.124;2024-02-21T08:24:31;8.89;96.03
19536;HTU21D;9913;51.168;4.124;2024-02-21T08:27:01;8.91;95.91
19536;HTU21D;9913;51.168;4.124;2024-02-21T08:29:29;8.92;95.82
19536;HTU21D;9913;51.168;4.124;2024-02-21T08:31:58;8.91;95.85
19536;HTU21D;9913;51.168;4.124;2024-02-21T08:34:26;8.91;96.13
19536;HTU21D;9913;51.168;4.124;2024-02-21T08:36:56;9.01;96.10
19536;HTU21D;9913;51.168;4.124;2024-02-21T08:39:25;8.96;95.93
19536;HTU21D;9913;51.168;4.124;2024-02-21T08:41:55;8.93;96.10
19536;HTU21D;9913;51.168;4.124;2024-02-21T08:44:28;8.90;96.05
19536;HTU21D;9913;51.168;4.124;2024-02-21T08:46:56;8.90;96.13
19536;HTU21D;9913;51.168;4.124;2024-02-21T08:49:25;8.89;96.23
19536;HTU21D;9913;51.168;4.124;2024-02-21T08:52:01;8.97;96.07
19536;HTU21D;9913;51.168;4.124;2024-02-21T08:54:29;8.95;96.18
19536;HTU21D;9913;51.168;4.124;2024-02-21T08:56:58;8.89;96.29
19536;HTU21D;9913;51.168;4.124;2024-02-21T08:59:28;8.88;96.20
19536;HTU21D;9913;51.168;4.124;2024-02-21T09:01:56;8.85;96.07
19536;HTU21D;9913;51.168;4.124;2024-02-21T09:04:24;8.93;96.27
19536;HTU21D;9913;51.168;4.124;2024-02-21T09:06:53;8.96;96.18
19536;HTU21D;9913;51.168;4.124;2024-02-21T09:09:21;9.02;96.23
19536;HTU21D;9913;51.168;4.124;2024-02-21T09:11:53;9.02;96.08
19536;HTU21D;9913;51.168;4.124;2024-02-21T09:14:21;9.16;96.22
19536;HTU21D;9913;51.168;4.124;2024-02-21T09:16:51;9.15;96.50
19536;HTU21D;9913;51.168;4.124;2024-02-21T09:19:19;9.17;96.54
19536;HTU21D;9913;51.168;4.124;2024-02-21T09:21:48;9.23;96.53
19536;HTU21D;9913;51.168;4.124;2024-02-21T09:24:17;9.11;96.49
19536;HTU21D;9913;51.168;4.124;2024-02-21T09:26:45;9.24;96.71
19536;HTU21D;9913;51.168;4.124;2024-02-21T09:29:14;9.20;96.53
19536;HTU21D;9913;51.168;4.124;2024-02-21T09:31:44;9.02;97.05
19536;HTU21D;9913;51.168;4.124;2024-02-21T09:34:14;9.11;97.20
19536;HTU21D;9913;51.168;4.124;2024-02-21T09:36:42;9.04;96.91
19536;HTU21D;9913;51.168;4.124;2024-02-21T09:39:11;9.08;97.26
19536;HTU21D;9913;51.168;4.124;2024-02-21T09:41:45;9.23;97.60
19536;HTU21D;9913;51.168;4.124;2024-02-21T09:44:15;9.23;97.28
19536;HTU21D;9913;51.168;4.124;2024-02-21T09:46:52;9.25;97.71
19536;HTU21D;9913;51.168;4.124;2024-02-21T09:49:30;9.33;97.55
19536;HTU21D;9913;51.168;4.124;2024-02-21T09:52:01;9.42;97.63
19536;HTU21D;9913;51.168;4.124;2024-02-21T09:54:32;9.39;97.60
19536;HTU21D;9913;51.168;4.124;2024-02-21T09:57:01;9.39;97.13
19536;HTU21D;9913;51.168;4.124;2024-02-21T09:59:31;9.38;97.83
19536;HTU21D;9913;51.168;4.124;2024-02-21T10:02:00;9.41;97.52
19536;HTU21D;9913;51.168;4.124;2024-02-21T10:04:31;9.48;97.84
19536;HTU21D;9913;51.168;4.124;2024-02-21T10:07:00;9.36;98.30
19536;HTU21D;9913;51.168;4.124;2024-02-21T10:09:28;9.27;97.67
19536;HTU21D;9913;51.168;4.124;2024-02-21T10:12:08;9.36;97.80
19536;HTU21D;9913;51.168;4.124;2024-02-21T10:14:37;9.53;98.20
19536;HTU21D;9913;51.168;4.124;2024-02-21T10:17:06;9.71;98.73
19536;HTU21D;9913;51.168;4.124;2024-02-21T10:19:39;9.94;98.93
19536;HTU21D;9913;51.168;4.124;2024-02-21T10:22:08;9.83;98.56
19536;HTU21D;9913;51.168;4.124;2024-02-21T10:24:37;9.89;98.88
19536;HTU21D;9913;51.168;4.124;2024-02-21T10:27:09;10.04;99.06
19536;HTU21D;9913;51.168;4.124;2024-02-21T10:29:40;9.81;98.91
19536;HTU21D;9913;51.168;4.124;2024-02-21T10:32:10;9.76;98.55
19536;HTU21D;9913;51.168;4.124;2024-02-21T10:34:41;9.94;98.74
19536;HTU21D;9913;51.168;4.124;2024-02-21T10:37:11;10.06;98.64
19536;HTU21D;9913;51.168;4.124;2024-02-21T10:39:41;9.94;99.25
19536;HTU21D;9913;51.168;4.124;2024-02-21T10:42:12;9.98;99.01
19536;HTU21D;9913;51.168;4.124;2024-02-21T10:44:40;10.09;99.21
19536;HTU21D;9913;51.168;4.124;2024-02-21T10:47:11;10.01;98.90
19536;HTU21D;9913;51.168;4.124;2024-02-21T10:49:42;10.01;98.39
19536;HTU21D;9913;51.168;4.124;2024-02-21T10:52:19;10.07;98.48
19536;HTU21D;9913;51.168;4.124;2024-02-21T10:54:55;9.98;99.02
19536;HTU21D;9913;51.168;4.124;2024-02-21T10:57:25;9.99;99.10
19536;HTU21D;9913;51.168;4.124;2024-02-21T10:59:55;9.94;99.09
19536;HTU21D;9913;51.168;4.124;2024-02-21T11:02:27;10.08;99.19
19536;HTU21D;9913;51.168;4.124;2024-02-21T11:05:01;10.03;99.72
19536;HTU21D;9913;51.168;4.124;2024-02-21T11:07:32;9.99;99.27
19536;HTU21D;9913;51.168;4.124;2024-02-21T11:10:01;10.08;99.92
19536;HTU21D;9913;51.168;4.124;2024-02-21T11:12:32;9.94;98.69
19536;HTU21D;9913;51.168;4.124;2024-02-21T11:15:04;9.94;99.71
19536;HTU21D;9913;51.168;4.124;2024-02-21T11:17:33;9.94;99.82
19536;HTU21D;9913;51.168;4.124;2024-02-21T11:20:17;9.98;99.87
19536;HTU21D;9913;51.168;4.124;2024-02-21T11:22:46;9.95;99.86
19536;HTU21D;9913;51.168;4.124;2024-02-21T11:25:21;10.00;99.90
19536;HTU21D;9913;51.168;4.124;2024-02-21T11:27:50;10.06;99.77
19536;HTU21D;9913;51.168;4.124;2024-02-21T11:30:26;10.01;100.01
19536;HTU21D;9913;51.168;4.124;2024-02-21T11:33:00;9.97;99.47
19536;HTU21D;9913;51.168;4.124;2024-02-21T11:35:33;9.99;99.83
19536;HTU21D;9913;51.168;4.124;2024-02-21T11:38:09;9.86;99.74
19536;HTU21D;9913;51.168;4.124;2024-02-21T11:40:44;9.86;99.86
19536;HTU21D;9913;51.168;4.124;2024-02-21T11:43:13;9.86;99.62
19536;HTU21D;9913;51.168;4.124;2024-02-21T11:45:41;9.96;99.93
19536;HTU21D;9913;51.168;4.124;2024-02-21T11:48:10;10.14;100.19
19536;HTU21D;9913;51.168;4.124;2024-02-21T11:50:40;10.21;100.09
19536;HTU21D;9913;51.168;4.124;2024-02-21T11:53:09;10.21;100.33
19536;HTU21D;9913;51.168;4.124;2024-02-21T11:55:38;10.04;99.89
19536;HTU21D;9913;51.168;4.124;2024-02-21T11:58:06;9.99;99.88
19536;HTU21D;9913;51.168;4.124;2024-02-21T12:00:34;10.03;100.42
19536;HTU21D;9913;51.168;4.124;2024-02-21T12:03:04;9.91;99.74
19536;HTU21D;9913;51.168;4.124;2024-02-21T12:05:32;9.81;100.42
19536;HTU21D;9913;51.168;4.124;2024-02-21T12:08:04;9.88;100.32
19536;HTU21D;9913;51.168;4.124;2024-02-21T12:10:32;9.82;100.66
19536;HTU21D;9913;51.168;4.124;2024-02-21T12:13:06;9.86;100.63
19536;HTU21D;9913;51.168;4.124;2024-02-21T12:15:35;9.95;100.91
19536;HTU21D;9913;51.168;4.124;2024-02-21T12:18:04;9.94;100.52
19536;HTU21D;9913;51.168;4.124;2024-02-21T12:20:33;9.92;100.32
19536;HTU21D;9913;51.168;4.124;2024-02-21T12:23:09;10.09;100.61
19536;HTU21D;9913;51.168;4.124;2024-02-21T12:25:38;10.06;101.05
19536;HTU21D;9913;51.168;4.124;2024-02-21T12:28:07;10.05;100.90
19536;HTU21D;9913;51.168;4.124;2024-02-21T12:30:35;10.08;101.15
19536;HTU21D;9913;51.168;4.124;2024-02-21T12:33:06;10.07;100.74
19536;HTU21D;9913;51.168;4.124;2024-02-21T12:35:35;10.15;101.13
19536;HTU21D;9913;51.168;4.124;2024-02-21T12:38:05;10.19;100.83
19536;HTU21D;9913;51.168;4.124;2024-02-21T12:40:33;10.18;101.16
19536;HTU21D;9913;51.168;4.124;2024-02-21T12:43:02;10.23;100.78
19536;HTU21D;9913;51.168;4.124;2024-02-21T12:45:31;10.22;101.08
19536;HTU21D;9913;51.168;4.124;2024-02-21T12:48:01;10.20;101.37
19536;HTU21D;9913;51.168;4.124;2024-02-21T12:50:31;10.40;100.95
19536;HTU21D;9913;51.168;4.124;2024-02-21T12:53:00;10.27;100.70
19536;HTU21D;9913;51.168;4.124;2024-02-21T12:55:30;10.28;101.35
19536;HTU21D;9913;51.168;4.124;2024-02-21T12:58:03;10.40;101.24
19536;HTU21D;9913;51.168;4.124;2024-02-21T13:00:31;10.49;101.93
19536;HTU21D;9913;51.168;4.124;2024-02-21T13:03:00;10.34;101.12
19536;HTU21D;9913;51.168;4.124;2024-02-21T13:05:28;10.21;100.85
19536;HTU21D;9913;51.168;4.124;2024-02-21T13:07:56;10.35;101.05
19536;HTU21D;9913;51.168;4.124;2024-02-21T13:10:25;10.37;101.17
19536;HTU21D;9913;51.168;4.124;2024-02-21T13:12:54;10.55;100.49
19536;HTU21D;9913;51.168;4.124;2024-02-21T13:15:23;10.54;101.35
19536;HTU21D;9913;51.168;4.124;2024-02-21T13:17:51;10.58;101.71
19536;HTU21D;9913;51.168;4.124;2024-02-21T13:20:20;10.58;101.32
19536;HTU21D;9913;51.168;4.124;2024-02-21T13:22:49;10.59;100.56
19536;HTU21D;9913;51.168;4.124;2024-02-21T13:25:17;10.52;100.47
19536;HTU21D;9913;51.168;4.124;2024-02-21T13:27:48;10.48;100.47
19536;HTU21D;9913;51.168;4.124;2024-02-21T13:30:18;10.28;99.42
19536;HTU21D;9913;51.168;4.124;2024-02-21T13:32:46;10.27;98.68
19536;HTU21D;9913;51.168;4.124;2024-02-21T13:35:15;10.23;97.89
19536;HTU21D;9913;51.168;4.124;2024-02-21T13:37:43;10.12;98.29
19536;HTU21D;9913;51.168;4.124;2024-02-21T13:40:12;10.06;97.53
19536;HTU21D;9913;51.168;4.124;2024-02-21T13:42:40;10.00;96.57
19536;HTU21D;9913;51.168;4.124;2024-02-21T13:45:10;9.93;97.46
19536;HTU21D;9913;51.168;4.124;2024-02-21T13:47:39;9.80;97.33
19536;HTU21D;9913;51.168;4.124;2024-02-21T13:50:09;9.70;96.64
19536;HTU21D;9913;51.168;4.124;2024-02-21T13:52:38;9.62;96.68
19536;HTU21D;9913;51.168;4.124;2024-02-21T13:55:06;9.62;96.33
19536;HTU21D;9913;51.168;4.124;2024-02-21T13:57:35;9.67;96.20
19536;HTU21D;9913;51.168;4.124;2024-02-21T14:00:05;9.56;95.86
19536;HTU21D;9913;51.168;4.124;2024-02-21T14:02:41;9.52;95.81
19536;HTU21D;9913;51.168;4.124;2024-02-21T14:05:10;9.51;95.72
19536;HTU21D;9913;51.168;4.124;2024-02-21T14:07:38;9.44;95.90
19536;HTU21D;9913;51.168;4.124;2024-02-21T14:10:08;9.52;95.55
19536;HTU21D;9913;51.168;4.124;2024-02-21T14:12:37;9.46;95.63
19536;HTU21D;9913;51.168;4.124;2024-02-21T14:15:07;9.35;95.55
19536;HTU21D;9913;51.168;4.124;2024-02-21T14:17:36;9.31;95.13
19536;HTU21D;9913;51.168;4.124;2024-02-21T14:20:08;9.29;95.63
19536;HTU21D;9913;51.168;4.124;2024-02-21T14:22:40;9.31;95.52
19536;HTU21D;9913;51.168;4.124;2024-02-21T14:25:08;9.22;95.52
19536;HTU21D;9913;51.168;4.124;2024-02-21T14:27:37;9.24;95.40
19536;HTU21D;9913;51.168;4.124;2024-02-21T14:30:06;9.27;95.10
19536;HTU21D;9913;51.168;4.124;2024-02-21T14:32:38;9.19;95.29
19536;HTU21D;9913;51.168;4.124;2024-02-21T14:35:08;9.20;95.14
19536;HTU21D;9913;51.168;4.124;2024-02-21T14:37:36;9.12;95.20
19536;HTU21D;9913;51.168;4.124;2024-02-21T14:40:06;9.10;95.43
19536;HTU21D;9913;51.168;4.124;2024-02-21T14:42:35;9.11;95.62
19536;HTU21D;9913;51.168;4.124;2024-02-21T14:45:04;9.10;95.63
19536;HTU21D;9913;51.168;4.124;2024-02-21T14:47:33;9.06;95.48
19536;HTU21D;9913;51.168;4.124;2024-02-21T14:50:02;9.07;95.55
19536;HTU21D;9913;51.168;4.124;2024-02-21T14:52:33;9.03;95.68
19536;HTU21D;9913;51.168;4.124;2024-02-21T14:55:03;9.01;95.64
19536;HTU21D;9913;51.168;4.124;2024-02-21T14:57:32;8.96;96.04
19536;HTU21D;9913;51.168;4.124;2024-02-21T15:00:00;8.97;96.43
19536;HTU21D;9913;51.168;4.124;2024-02-21T15:02:34;8.90;95.88
19536;HTU21D;9913;51.168;4.124;2024-02-21T15:05:03;8.90;96.62
19536;HTU21D;9913;51.168;4.124;2024-02-21T15:07:34;8.91;96.73
19536;HTU21D;9913;51.168;4.124;2024-02-21T15:10:02;8.90;97.28
19536;HTU21D;9913;51.168;4.124;2024-02-21T15:12:30;8.88;96.94
19536;HTU21D;9913;51.168;4.124;2024-02-21T15:14:59;8.87;96.70
19536;HTU21D;9913;51.168;4.124;2024-02-21T15:17:27;8.81;96.84
19536;HTU21D;9913;51.168;4.124;2024-02-21T15:19:57;8.82;97.45
19536;HTU21D;9913;51.168;4.124;2024-02-21T15:22:26;8.79;97.06
19536;HTU21D;9913;51.168;4.124;2024-02-21T15:24:56;8.77;97.21
19536;HTU21D;9913;51.168;4.124;2024-02-21T15:27:25;8.73;97.28
19536;HTU21D;9913;51.168;4.124;2024-02-21T15:29:54;8.74;97.29
19536;HTU21D;9913;51.168;4.124;2024-02-21T15:32:24;8.74;97.46
19536;HTU21D;9913;51.168;4.124;2024-02-21T15:34:53;8.76;97.54
19536;HTU21D;9913;51.168;4.124;2024-02-21T15:37:22;8.76;98.18
19536;HTU21D;9913;51.168;4.124;2024-02-21T15:39:52;8.77;98.20
19536;HTU21D;9913;51.168;4.124;2024-02-21T15:42:21;8.79;98.26
19536;HTU21D;9913;51.168;4.124;2024-02-21T15:44:50;8.77;97.74
19536;HTU21D;9913;51.168;4.124;2024-02-21T15:47:18;8.76;97.81
19536;HTU21D;9913;51.168;4.124;2024-02-21T15:49:50;8.76;98.44
19536;HTU21D;9913;51.168;4.124;2024-02-21T15:52:19;8.76;98.73
19536;HTU21D;9913;51.168;4.124;2024-02-21T15:54:48;8.78;98.47